Time;durP1;ratioP1;P1;durP2;ratioP2;P2;SDS_P1;SDS_P2;PMS_P1;PMS_P2;Temp;Humidity;BMP_temperature;BMP_pressure;BME280_temperature;BME280_humidity;BME280_pressure;Samples;Min_cycle;Max_cycle;Signal;HPM_P1;HPM_P2
2023/03/14 00:02:04;;;;;;;13.20;7.10;;;;;;;9.19;65.25;98464.20;104513;1249;139099;-69
2023/03/14 00:04:46;;;;;;;13.90;7.40;;;;;;;9.15;65.18;98482.10;104584;1252;96061;-69
2023/03/14 00:07:34;;;;;;;11.30;6.90;;;;;;;9.10;65.31;98468.32;104497;1250;138453;-68
2023/03/14 00:10:15;;;;;;;12.50;6.90;;;;;;;9.06;65.38;98470.96;104602;1249;108246;-68
2023/03/14 00:13:02;;;;;;;14.40;7.10;;;;;;;9.02;65.45;98457.98;104447;1252;139114;-68
2023/03/14 00:15:50;;;;;;;11.50;7.20;;;;;;;8.99;65.50;98447.44;104721;1250;107491;-68
2023/03/14 00:18:20;;;;;;;10.90;6.70;;;;;;;8.96;65.60;98452.10;104682;1250;96578;-68
2023/03/14 00:21:02;;;;;;;13.40;7.10;;;;;;;8.92;65.45;98451.11;104605;1249;137759;-68
2023/03/14 00:23:43;;;;;;;9.40;6.30;;;;;;;8.90;65.64;98454.66;104679;1249;107883;-68
2023/03/14 00:26:30;;;;;;;14.30;7.10;;;;;;;8.88;65.63;98453.40;104481;1250;138176;-68
2023/03/14 00:29:00;;;;;;;13.90;7.20;;;;;;;8.87;65.54;98449.65;104707;1249;109512;-69
2023/03/14 00:31:48;;;;;;;13.80;8.00;;;;;;;8.86;65.54;98436.20;103757;1248;1003281;-68
2023/03/14 00:34:29;;;;;;;13.50;7.30;;;;;;;8.85;65.46;98437.79;104731;1251;111579;-68
2023/03/14 00:37:05;;;;;;;13.20;7.60;;;;;;;8.84;65.43;98434.36;104517;1249;138338;-68
2023/03/14 00:39:32;;;;;;;14.40;7.90;;;;;;;8.82;65.45;98428.06;104732;1250;97359;-68
2023/03/14 00:42:00;;;;;;;14.20;7.30;;;;;;;8.80;65.58;98429.36;104513;1253;108004;-68
2023/03/14 00:44:28;;;;;;;12.10;7.10;;;;;;;8.79;65.59;98418.16;104490;1250;140025;-68
2023/03/14 00:47:13;;;;;;;;;;;;;;;8.77;65.65;98416.02;104671;1250;111930;-68
2023/03/14 00:49:44;;;;;;;14.20;7.70;;;;;;;8.73;65.76;98418.66;104454;1250;124803;-68
2023/03/14 00:52:11;;;;;;;14.70;7.40;;;;;;;8.70;65.78;98398.73;104611;1250;97748;-68
2023/03/14 00:54:50;;;;;;;16.60;8.20;;;;;;;8.67;65.91;98404.45;104519;1250;140734;-69
2023/03/14 00:57:37;;;;;;;13.50;7.80;;;;;;;8.62;65.86;98394.32;104647;1250;95838;-68
2023/03/14 01:00:12;;;;;;;16.10;8.10;;;;;;;8.58;65.90;98398.33;104658;1250;111550;-69
2023/03/14 01:02:50;;;;;;;14.70;7.70;;;;;;;8.55;65.90;98400.77;104456;1250;138037;-69
2023/03/14 01:05:22;;;;;;;15.80;8.90;;;;;;;8.52;66.04;98391.05;103855;1250;1003102;-69
2023/03/14 01:07:52;;;;;;;13.30;8.10;;;;;;;8.48;66.08;98388.98;103669;1250;1003095;-68
2023/03/14 01:10:32;;;;;;;12.80;7.60;;;;;;;8.44;66.01;98388.17;100470;1249;5361399;-68
2023/03/14 01:13:11;;;;;;;14.50;7.40;;;;;;;8.41;66.10;98380.90;104535;1250;139676;-68
2023/03/14 01:15:47;;;;;;;12.90;7.70;;;;;;;8.36;66.08;98394.47;104583;1249;107267;-69
2023/03/14 01:18:17;;;;;;;17.20;7.80;;;;;;;8.33;66.28;98391.70;104630;1250;99746;-68
2023/03/14 01:20:56;;;;;;;12.70;8.20;;;;;;;8.31;66.33;98389.73;104445;1252;137851;-68
2023/03/14 01:23:44;;;;;;;15.80;8.30;;;;;;;8.27;66.37;98380.75;104654;1252;96030;-69
2023/03/14 01:26:24;;;;;;;15.40;7.60;;;;;;;8.24;66.52;98385.55;104551;1250;139107;-69
2023/03/14 01:28:54;;;;;;;13.80;7.70;;;;;;;8.22;66.45;98386.02;104535;1251;108166;-66
2023/03/14 01:31:25;;;;;;;12.80;7.80;;;;;;;8.20;66.47;98382.85;104444;1250;140334;-69
2023/03/14 01:34:13;;;;;;;13.60;7.60;;;;;;;8.16;66.57;98380.42;104668;1250;108301;-67
2023/03/14 01:37:01;;;;;;;14.20;7.70;;;;;;;8.11;66.64;98374.27;104609;1249;141135;-67
2023/03/14 01:39:48;;;;;;;15.80;7.70;;;;;;;8.06;66.79;98374.39;104771;1250;111636;-66
2023/03/14 01:42:36;;;;;;;14.30;7.70;;;;;;;8.00;66.81;98380.77;104670;1250;108755;-67
2023/03/14 01:45:42;;;;;;;13.60;7.60;;;;;;;7.95;66.99;98369.60;104665;1250;96542;-67
2023/03/14 01:48:10;;;;;;;15.30;7.80;;;;;;;7.88;67.16;98372.34;104575;1250;107700;-67
2023/03/14 01:50:39;;;;;;;15.00;8.60;;;;;;;7.83;67.29;98374.15;104575;1249;138704;-67
2023/03/14 01:53:10;;;;;;;14.70;7.80;;;;;;;7.78;67.35;98369.58;104605;1250;111464;-67
2023/03/14 01:55:38;;;;;;;12.40;7.40;;;;;;;7.74;67.47;98376.55;104458;1253;138126;-67
2023/03/14 01:58:15;;;;;;;14.80;7.80;;;;;;;7.70;67.51;98370.36;104529;1249;96064;-67
2023/03/14 02:01:05;;;;;;;12.70;7.40;;;;;;;7.65;67.63;98376.64;104461;1249;138329;-67
2023/03/14 02:03:42;;;;;;;13.60;7.70;;;;;;;7.62;67.65;98368.55;104468;1250;96165;-67
2023/03/14 02:06:11;;;;;;;15.00;7.40;;;;;;;7.59;67.80;98357.44;104603;1252;110158;-67
2023/03/14 02:08:43;;;;;;;12.40;7.70;;;;;;;7.55;67.71;98357.61;104444;1250;138324;-66
2023/03/14 02:11:15;;;;;;;14.00;7.70;;;;;;;7.53;67.94;98352.33;103764;1250;1002294;-69
2023/03/14 02:13:53;;;;;;;15.70;7.90;;;;;;;7.49;67.85;98352.34;104366;1250;138333;-67
2023/03/14 02:16:47;;;;;;;15.70;8.00;;;;;;;7.46;67.91;98336.30;104583;1252;96063;-67
2023/03/14 02:19:36;;;;;;;;;;;;;;;7.43;67.87;98338.31;104564;1250;138581;-67
2023/03/14 02:22:21;;;;;;;13.40;7.40;;;;;;;7.42;67.82;98346.52;104437;1255;107611;-67
2023/03/14 02:25:03;;;;;;;12.00;7.30;;;;;;;7.41;67.98;98335.16;104397;1250;139225;-67
2023/03/14 02:27:34;;;;;;;13.30;7.20;;;;;;;7.39;67.90;98330.58;104629;1250;107934;-67
2023/03/14 02:30:24;;;;;;;16.80;8.10;;;;;;;7.37;67.92;98322.21;103834;1250;1002702;-67
2023/03/14 02:33:06;;;;;;;14.30;7.70;;;;;;;7.33;68.01;98314.59;104495;1250;138670;-67
2023/03/14 02:35:47;;;;;;;14.80;7.50;;;;;;;7.28;68.10;98309.49;104609;1250;107869;-67
2023/03/14 02:38:40;;;;;;;14.10;7.80;;;;;;;7.25;68.02;98306.39;104528;1249;138775;-68
2023/03/14 02:41:21;;;;;;;16.70;8.60;;;;;;;7.20;68.17;98290.21;104657;1251;107767;-68
2023/03/14 02:44:07;;;;;;;13.40;7.80;;;;;;;7.17;68.24;98280.83;104497;1250;138211;-67
2023/03/14 02:46:55;;;;;;;13.70;7.50;;;;;;;7.13;68.22;98271.88;103970;1252;1002299;-68
2023/03/14 02:49:22;;;;;;;11.70;7.50;;;;;;;7.10;68.21;98277.04;104357;1250;140822;-67
2023/03/14 02:51:53;;;;;;;13.70;7.40;;;;;;;7.08;68.31;98278.36;104480;1249;96170;-68
2023/03/14 02:54:23;;;;;;;18.60;8.50;;;;;;;7.06;68.30;98278.13;104557;1250;106766;-68
2023/03/14 02:56:58;;;;;;;11.60;7.10;;;;;;;7.04;68.38;98283.94;104410;1251;138176;-67
2023/03/14 02:59:36;;;;;;;12.10;7.70;;;;;;;7.02;68.28;98276.77;104650;1249;110605;-68
2023/03/14 03:02:09;;;;;;;12.10;7.30;;;;;;;7.00;68.25;98271.98;104410;1248;138231;-68
2023/03/14 03:04:37;;;;;;;12.10;7.00;;;;;;;6.99;68.40;98268.91;104954;1248;98428;-67
2023/03/14 03:07:04;;;;;;;12.40;6.70;;;;;;;6.97;68.32;98270.42;104892;1247;138670;-68
2023/03/14 03:09:31;;;;;;;12.20;6.90;;;;;;;6.95;68.29;98270.70;103965;1247;1002713;-67
2023/03/14 03:11:58;;;;;;;10.70;6.50;;;;;;;6.91;68.51;98271.21;104695;1252;112069;-67
2023/03/14 03:14:28;;;;;;;13.60;6.80;;;;;;;6.89;68.50;98282.04;103811;1247;1002844;-68
2023/03/14 03:16:58;;;;;;;14.30;7.10;;;;;;;6.87;68.53;98283.18;104684;1253;96371;-67
2023/03/14 03:19:28;;;;;;;9.90;6.50;;;;;;;6.86;68.50;98291.04;104680;1247;140033;-69
2023/03/14 03:21:55;;;;;;;11.80;6.60;;;;;;;6.83;68.40;98283.20;104879;1247;96335;-68
2023/03/14 03:24:22;;;;;;;12.50;7.00;;;;;;;6.82;68.34;98273.06;104938;1248;111423;-68
2023/03/14 03:26:49;;;;;;;11.30;6.90;;;;;;;6.80;68.39;98279.41;104806;1247;138006;-69
2023/03/14 03:29:18;;;;;;;13.40;7.10;;;;;;;6.77;68.42;98271.57;104846;1247;98582;-68
2023/03/14 03:31:46;;;;;;;11.50;6.60;;;;;;;6.76;68.54;98272.52;104810;1248;137952;-67
2023/03/14 03:34:13;;;;;;;12.20;6.80;;;;;;;6.74;68.39;98265.35;104708;1253;96122;-68
2023/03/14 03:36:44;;;;;;;14.00;6.40;;;;;;;6.72;68.44;98273.54;104188;1253;1002861;-67
2023/03/14 03:39:11;;;;;;;10.70;6.50;;;;;;;6.70;68.34;98276.79;104654;1253;109445;-67
2023/03/14 03:41:42;;;;;;;12.70;7.00;;;;;;;6.69;68.38;98273.73;104960;1247;97502;-67
2023/03/14 03:44:10;;;;;;;10.30;6.10;;;;;;;6.65;68.44;98271.98;104649;1253;138459;-68
2023/03/14 03:46:37;;;;;;;10.80;6.50;;;;;;;6.64;68.43;98273.58;104678;1248;95818;-68
2023/03/14 03:49:05;;;;;;;10.00;6.30;;;;;;;6.62;68.47;98266.94;104805;1247;138109;-68
2023/03/14 03:51:32;;;;;;;10.50;6.20;;;;;;;6.61;68.29;98270.45;104671;1247;107671;-68
2023/03/14 03:54:00;;;;;;;11.60;5.90;;;;;;;6.60;68.19;98261.51;104729;1247;96632;-68
2023/03/14 03:56:31;;;;;;;11.20;5.70;;;;;;;6.60;68.14;98267.53;104698;1250;138170;-68
2023/03/14 03:58:59;;;;;;;9.30;5.40;;;;;;;6.59;68.17;98268.45;104623;1248;96222;-68
2023/03/14 04:01:26;;;;;;;11.10;6.00;;;;;;;6.60;68.06;98265.82;104781;1248;138292;-69
2023/03/14 04:03:54;;;;;;;10.30;5.90;;;;;;;6.59;68.20;98269.29;104638;1250;108629;-69
2023/03/14 04:06:25;;;;;;;13.60;6.00;;;;;;;6.60;68.06;98268.77;104688;1252;96555;-69
2023/03/14 04:08:55;;;;;;;11.50;5.20;;;;;;;6.60;68.00;98270.31;104668;1251;140200;-68
2023/03/14 04:11:43;;;;;;;9.70;5.80;;;;;;;6.57;67.95;98272.01;104766;1248;95942;-68
2023/03/14 04:14:23;;;;;;;9.70;5.50;;;;;;;6.55;68.06;98271.41;104774;1251;141844;-68
2023/03/14 04:17:04;;;;;;;8.50;5.30;;;;;;;6.53;68.03;98276.01;104638;1250;107670;-67
2023/03/14 04:19:31;;;;;;;12.80;5.60;;;;;;;6.51;68.16;98274.91;104765;1248;138388;-68
2023/03/14 04:21:59;;;;;;;10.80;5.40;;;;;;;6.48;68.11;98271.77;104657;1247;107371;-67
2023/03/14 04:24:31;;;;;;;9.60;6.00;;;;;;;6.46;68.08;98262.87;104722;1253;96068;-68
2023/03/14 04:26:58;;;;;;;9.50;5.10;;;;;;;6.44;68.00;98258.13;104809;1247;137761;-68
2023/03/14 04:29:25;;;;;;;9.60;5.70;;;;;;;6.42;68.12;98259.59;104640;1251;107007;-68
2023/03/14 04:31:53;;;;;;;7.70;5.20;;;;;;;6.42;68.11;98266.14;104785;1247;138663;-67
2023/03/14 04:34:20;;;;;;;10.70;5.90;;;;;;;6.42;68.11;98268.42;104841;1252;107497;-67
2023/03/14 04:36:51;;;;;;;8.40;5.10;;;;;;;6.40;68.18;98267.10;103869;1247;1002669;-67
2023/03/14 04:39:24;;;;;;;10.50;5.30;;;;;;;6.39;68.08;98269.59;104706;1253;111247;-68
2023/03/14 04:41:56;;;;;;;11.20;5.60;;;;;;;6.39;68.17;98256.15;104682;1250;106900;-68
2023/03/14 04:44:24;;;;;;;7.80;5.40;;;;;;;6.40;67.96;98260.06;104760;1250;138293;-67
2023/03/14 04:46:52;;;;;;;9.50;5.30;;;;;;;6.41;67.79;98250.16;104662;1251;108022;-67
2023/03/14 04:49:20;;;;;;;9.70;5.00;;;;;;;6.43;67.98;98241.95;104530;1248;138447;-67
2023/03/14 04:51:48;;;;;;;7.80;5.00;;;;;;;6.44;67.99;98233.63;104734;1248;112633;-68
2023/03/14 04:54:15;;;;;;;8.00;5.00;;;;;;;6.44;67.93;98222.21;104779;1248;107823;-67
2023/03/14 04:56:42;;;;;;;9.80;5.70;;;;;;;6.44;67.83;98217.73;104571;1252;138926;-67
2023/03/14 04:59:12;;;;;;;16.70;5.70;;;;;;;6.45;67.79;98208.87;103922;1254;1002709;-68
2023/03/14 05:01:41;;;;;;;12.20;5.70;;;;;;;6.46;67.83;98205.89;104477;1248;139470;-68
2023/03/14 05:04:22;;;;;;;12.90;6.00;;;;;;;6.47;67.78;98199.99;104849;1247;110602;-68
2023/03/14 05:07:16;;;;;;;10.80;5.80;;;;;;;6.48;67.82;98208.40;103710;1254;1003259;-68
2023/03/14 05:10:07;;;;;;;9.70;5.20;;;;;;;6.51;67.66;98201.20;104590;1251;96203;-68
2023/03/14 05:13:13;;;;;;;11.10;5.10;;;;;;;6.53;67.51;98201.08;104043;1267;138744;-69
2023/03/14 05:15:55;;;;;;;11.10;5.30;;;;;;;6.56;67.39;98193.33;104181;1259;96332;-68
2023/03/14 05:18:48;;;;;;;8.70;5.30;;;;;;;6.60;67.22;98178.08;104614;1247;110578;-68
2023/03/14 05:21:39;;;;;;;8.80;4.90;;;;;;;6.65;67.18;98185.81;104584;1248;107244;-67
2023/03/14 05:24:24;;;;;;;8.80;5.40;;;;;;;6.74;66.98;98180.21;104609;1253;96131;-68
2023/03/14 05:27:04;;;;;;;10.00;5.40;;;;;;;6.92;66.59;98195.55;104475;1251;142049;-70
2023/03/14 05:29:51;;;;;;;10.00;5.40;;;;;;;7.10;66.10;98195.46;104870;1248;96053;-69
2023/03/14 05:32:18;;;;;;;10.10;4.90;;;;;;;7.20;65.47;98186.86;104787;1247;141138;-69
2023/03/14 05:35:04;;;;;;;8.40;5.10;;;;;;;7.23;65.41;98185.29;104867;1247;110757;-68
2023/03/14 05:37:52;;;;;;;10.50;5.00;;;;;;;7.29;65.16;98180.66;104815;1248;138077;-66
2023/03/14 05:40:47;;;;;;;8.30;5.10;;;;;;;7.35;64.82;98160.29;104667;1251;108914;-67
2023/03/14 05:43:47;;;;;;;9.30;5.20;;;;;;;7.44;64.78;98165.38;104568;1247;137879;-66
2023/03/14 05:46:31;;;;;;;11.00;5.40;;;;;;;7.76;64.55;98152.24;103366;1248;1003193;-67
2023/03/14 05:49:11;;;;;;;11.90;5.10;;;;;;;8.18;63.41;98148.52;104482;1253;138650;-68
2023/03/14 05:51:47;;;;;;;8.40;5.20;;;;;;;8.42;62.44;98145.11;104671;1247;100221;-67
2023/03/14 05:54:26;;;;;;;7.60;5.00;;;;;;;8.71;61.15;98148.12;103893;1253;1002567;-68
2023/03/14 05:57:07;;;;;;;7.90;4.80;;;;;;;9.33;60.45;98137.86;104522;1248;137738;-68
2023/03/14 05:59:57;;;;;;;8.00;4.80;;;;;;;10.42;58.23;98122.83;104899;1253;111108;-69
2023/03/14 06:02:40;;;;;;;7.80;5.00;;;;;;;11.56;55.87;98113.20;104532;1250;138831;-69
2023/03/14 06:05:14;;;;;;;8.20;4.50;;;;;;;12.59;53.46;98106.81;104867;1247;98841;-69
2023/03/14 06:07:41;;;;;;;7.70;4.80;;;;;;;13.33;51.44;98101.52;104585;1248;138201;-70
2023/03/14 06:10:12;;;;;;;6.20;4.40;;;;;;;14.14;50.99;98093.20;104673;1250;96427;-69
2023/03/14 06:12:40;;;;;;;10.80;4.70;;;;;;;14.82;47.88;98085.87;104690;1248;111390;-68
2023/03/14 06:15:09;;;;;;;6.90;4.50;;;;;;;14.18;46.93;98079.57;104716;1248;141246;-70
2023/03/14 06:17:37;;;;;;;6.80;4.30;;;;;;;13.08;47.90;98091.05;104678;1249;96748;-69
2023/03/14 06:20:11;;;;;;;8.00;4.50;;;;;;;12.08;49.62;98098.36;104539;1251;138100;-68
2023/03/14 06:22:40;;;;;;;10.40;4.90;;;;;;;11.49;51.20;98090.40;104680;1248;98215;-68
2023/03/14 06:25:10;;;;;;;6.70;4.90;;;;;;;11.09;52.05;98103.24;104544;1251;137731;-67
2023/03/14 06:27:38;;;;;;;11.80;4.70;;;;;;;10.61;52.96;98102.46;104846;1247;107710;-67
2023/03/14 06:30:07;;;;;;;8.60;4.50;;;;;;;10.28;53.85;98103.09;104869;1247;95828;-68
2023/03/14 06:32:34;;;;;;;6.60;4.50;;;;;;;10.17;54.45;98114.89;104022;1251;1002189;-67
2023/03/14 06:35:05;;;;;;;8.80;4.70;;;;;;;11.38;53.96;98090.73;105102;1248;95957;-67
2023/03/14 06:37:35;;;;;;;7.90;4.80;;;;;;;12.34;51.41;98102.03;104692;1247;137439;-68
2023/03/14 06:40:02;;;;;;;9.10;4.30;;;;;;;13.04;50.62;98085.15;104631;1250;107718;-67
2023/03/14 06:42:44;;;;;;;10.50;4.40;;;;;;;13.86;49.08;98089.73;104655;1247;97553;-68
2023/03/14 06:45:15;;;;;;;7.40;4.10;;;;;;;13.93;48.26;98086.02;104685;1253;113277;-67
2023/03/14 06:47:42;;;;;;;11.20;4.40;;;;;;;14.94;48.04;98083.05;104722;1248;95758;-68
2023/03/14 06:50:11;;;;;;;11.10;4.40;;;;;;;16.28;45.00;98074.17;104520;1248;138569;-67
2023/03/14 06:52:41;;;;;;;6.70;4.80;;;;;;;17.34;44.30;98073.02;104600;1249;106976;-67
2023/03/14 06:55:09;;;;;;;9.40;4.50;;;;;;;18.30;41.47;98065.73;104494;1248;141682;-68
2023/03/14 06:57:37;;;;;;;10.00;4.10;;;;;;;17.90;40.91;98057.29;104578;1251;110677;-67
2023/03/14 07:00:05;;;;;;;10.70;4.10;;;;;;;17.00;41.71;98070.64;104602;1248;95996;-67
2023/03/14 07:02:33;;;;;;;7.30;4.50;;;;;;;16.37;42.50;98065.45;104571;1247;138258;-68
2023/03/14 07:05:17;;;;;;;8.10;3.90;;;;;;;15.72;42.98;98078.70;104658;1247;106827;-67
2023/03/14 07:07:44;;;;;;;8.90;4.50;;;;;;;15.32;44.21;98095.13;104402;1248;138444;-68
2023/03/14 07:10:12;;;;;;;8.60;4.10;;;;;;;14.84;44.92;98103.92;104654;1251;107446;-67
2023/03/14 07:12:40;;;;;;;9.80;4.40;;;;;;;14.33;46.19;98107.56;104410;1248;138581;-67
2023/03/14 07:15:08;;;;;;;8.30;4.60;;;;;;;13.95;46.87;98112.75;104738;1251;110714;-67
2023/03/14 07:17:58;;;;;;;7.70;4.70;;;;;;;13.67;47.75;98110.75;104502;1251;107625;-67
2023/03/14 07:20:26;;;;;;;9.90;4.90;;;;;;;13.48;48.09;98111.88;104363;1251;138281;-67
2023/03/14 07:22:54;;;;;;;7.30;4.30;;;;;;;13.73;48.35;98104.32;104731;1251;108014;-67
2023/03/14 07:25:30;;;;;;;11.20;4.70;;;;;;;14.90;46.81;98102.16;104444;1251;137710;-68
2023/03/14 07:27:58;;;;;;;10.20;4.50;;;;;;;16.07;45.53;98098.70;104567;1251;112011;-69
2023/03/14 07:30:25;;;;;;;9.20;4.50;;;;;;;17.21;43.88;98093.02;104563;1251;107919;-69
2023/03/14 07:32:53;;;;;;;8.90;4.40;;;;;;;18.46;41.53;98102.30;104585;1251;97474;-69
2023/03/14 07:35:22;;;;;;;6.20;4.10;;;;;;;19.44;39.38;98087.68;104519;1251;107454;-69
2023/03/14 07:37:49;;;;;;;8.90;4.20;;;;;;;20.08;38.24;98092.44;104588;1248;138078;-69
2023/03/14 07:40:18;;;;;;;12.10;4.10;;;;;;;20.78;38.59;98085.33;104495;1248;112039;-68
2023/03/14 07:42:46;;;;;;;9.30;4.50;;;;;;;21.21;37.11;98095.34;104371;1251;138258;-70
2023/03/14 07:45:36;;;;;;;9.10;4.90;;;;;;;20.66;35.16;98105.71;104625;1251;98592;-69
2023/03/14 07:48:08;;;;;;;13.30;4.70;;;;;;;20.17;36.17;98101.10;104660;1253;106103;-68
2023/03/14 07:50:36;;;;;;;7.90;4.30;;;;;;;19.65;36.32;98096.95;104427;1250;137751;-68
2023/03/14 07:53:03;;;;;;;12.30;4.90;;;;;;;19.40;36.50;98088.09;104553;1248;111823;-68
2023/03/14 07:55:30;;;;;;;17.70;5.10;;;;;;;19.46;37.06;98081.17;104575;1249;138686;-69
2023/03/14 07:57:57;;;;;;;7.10;4.20;;;;;;;19.65;36.96;98078.28;104743;1251;99238;-67
2023/03/14 08:00:24;;;;;;;10.40;4.80;;;;;;;19.99;36.66;98085.31;104701;1248;108967;-67
2023/03/14 08:02:51;;;;;;;6.40;3.90;;;;;;;19.89;36.80;98079.89;104370;1251;220836;-67
2023/03/14 08:05:19;;;;;;;8.70;4.70;;;;;;;19.65;37.36;98086.77;104690;1251;111186;-69
2023/03/14 08:07:46;;;;;;;8.00;4.20;;;;;;;19.75;36.84;98086.39;104535;1248;139638;-67
2023/03/14 08:10:21;;;;;;;9.40;4.40;;;;;;;19.97;36.43;98089.40;104725;1251;95758;-68
2023/03/14 08:12:48;;;;;;;13.90;4.70;;;;;;;20.30;35.55;98089.91;104667;1248;138599;-67
2023/03/14 08:15:16;;;;;;;7.80;4.00;;;;;;;20.31;35.49;98093.08;104795;1248;95952;-67
2023/03/14 08:17:43;;;;;;;5.50;3.90;;;;;;;19.75;35.82;98094.38;104711;1250;112038;-67
2023/03/14 08:20:12;;;;;;;6.10;3.80;;;;;;;19.04;37.03;98097.02;104622;1248;137681;-66
2023/03/14 08:22:40;;;;;;;6.60;4.00;;;;;;;18.63;38.06;98101.55;104732;1249;96341;-67
2023/03/14 08:25:09;;;;;;;7.00;3.30;;;;;;;18.15;37.76;98097.98;104603;1253;138211;-67
2023/03/14 08:27:38;;;;;;;8.60;3.70;;;;;;;17.71;38.67;98098.05;104716;1249;97474;-68
2023/03/14 08:30:06;;;;;;;6.70;3.80;;;;;;;17.28;39.15;98104.80;104713;1250;109972;-68
2023/03/14 08:32:34;;;;;;;11.50;4.10;;;;;;;16.94;40.08;98112.98;104571;1251;137541;-67
2023/03/14 08:35:01;;;;;;;7.10;3.70;;;;;;;16.84;40.57;98125.26;104784;1250;96458;-69
2023/03/14 08:37:28;;;;;;;9.20;3.60;;;;;;;16.57;39.97;98123.64;104589;1250;137471;-63
2023/03/14 08:39:56;;;;;;;9.30;3.70;;;;;;;16.15;40.26;98117.46;104731;1248;96396;-68
2023/03/14 08:42:23;;;;;;;10.30;4.30;;;;;;;15.90;41.83;98115.30;104720;1250;110716;-68
2023/03/14 08:44:51;;;;;;;6.00;3.30;;;;;;;15.84;41.14;98120.20;104579;1252;138153;-66
2023/03/14 08:47:18;;;;;;;6.50;3.50;;;;;;;15.66;42.14;98113.38;104711;1251;97111;-67
2023/03/14 08:49:46;;;;;;;10.40;3.70;;;;;;;15.61;42.80;98115.40;104593;1248;138395;-67
2023/03/14 08:52:15;;;;;;;5.10;3.70;;;;;;;15.84;43.35;98105.33;104679;1248;95970;-68
2023/03/14 08:54:44;;;;;;;5.60;3.50;;;;;;;16.34;43.16;98107.38;104586;1253;139022;-67
2023/03/14 08:57:11;;;;;;;7.40;3.70;;;;;;;16.82;42.41;98111.44;104741;1251;108033;-68
2023/03/14 08:59:38;;;;;;;8.90;4.00;;;;;;;16.92;41.48;98110.52;104741;1250;97611;-68
2023/03/14 09:02:06;;;;;;;7.40;3.60;;;;;;;16.89;41.10;98100.06;104639;1251;138414;-67
2023/03/14 09:04:33;;;;;;;6.40;3.80;;;;;;;17.28;39.84;98100.28;104750;1248;96499;-69
2023/03/14 09:07:00;;;;;;;7.00;4.10;;;;;;;17.21;39.67;98102.88;104590;1250;137542;-69
2023/03/14 09:09:28;;;;;;;6.90;3.30;;;;;;;16.90;40.16;98088.91;104507;1251;113149;-68
2023/03/14 09:11:55;;;;;;;5.90;3.50;;;;;;;16.72;40.23;98099.40;104696;1250;96386;-68
2023/03/14 09:14:22;;;;;;;6.60;3.60;;;;;;;16.48;40.80;98094.67;104667;1250;137451;-68
2023/03/14 09:16:50;;;;;;;6.50;3.50;;;;;;;16.29;41.65;98090.20;104750;1247;95850;-69
2023/03/14 09:19:18;;;;;;;8.50;3.50;;;;;;;16.13;41.82;98093.10;104714;1250;138004;-68
2023/03/14 09:21:45;;;;;;;6.90;3.50;;;;;;;16.01;42.68;98077.67;104723;1250;107522;-69
2023/03/14 09:24:12;;;;;;;7.40;3.60;;;;;;;16.02;42.90;98076.38;104776;1250;98237;-68
2023/03/14 09:26:39;;;;;;;5.90;3.50;;;;;;;16.13;42.75;98073.77;104670;1249;139290;-68
2023/03/14 09:29:07;;;;;;;9.10;3.60;;;;;;;16.26;42.29;98071.54;104726;1251;96389;-69
2023/03/14 09:31:35;;;;;;;7.80;3.30;;;;;;;16.43;42.77;98068.27;104618;1250;137528;-68
2023/03/14 09:34:02;;;;;;;6.60;3.70;;;;;;;16.61;42.35;98066.14;104724;1251;107838;-68
2023/03/14 09:36:30;;;;;;;8.60;3.60;;;;;;;16.75;42.05;98062.44;104803;1250;95636;-67
2023/03/14 09:38:57;;;;;;;8.00;3.40;;;;;;;16.93;42.26;98063.34;104721;1250;107628;-67
2023/03/14 09:41:29;;;;;;;6.30;2.80;;;;;;;17.12;42.12;98054.54;104749;1250;96422;-69
2023/03/14 09:44:04;;;;;;;6.20;3.00;;;;;;;17.09;40.95;98055.01;104491;1250;137428;-68
2023/03/14 09:46:33;;;;;;;8.30;3.40;;;;;;;16.90;40.97;98052.10;104749;1248;108644;-68
2023/03/14 09:49:01;;;;;;;8.20;2.90;;;;;;;16.89;41.32;98052.85;104613;1253;138374;-67
2023/03/14 09:51:29;;;;;;;9.70;3.50;;;;;;;17.03;41.35;98043.70;104718;1250;107867;-68
2023/03/14 09:53:56;;;;;;;7.60;3.30;;;;;;;17.08;40.89;98035.30;104679;1253;96263;-68
2023/03/14 09:56:26;;;;;;;5.90;3.40;;;;;;;16.88;40.44;98039.73;103852;1248;1003397;-68
2023/03/14 09:58:56;;;;;;;8.10;3.30;;;;;;;16.78;41.14;98033.34;104662;1250;108499;-68
2023/03/14 10:01:27;;;;;;;5.40;3.00;;;;;;;16.79;41.45;98019.20;104569;1249;139766;-68
2023/03/14 10:04:01;;;;;;;8.70;3.30;;;;;;;16.87;41.07;98027.58;104635;1250;107242;-68
2023/03/14 10:06:31;;;;;;;6.00;3.30;;;;;;;16.96;41.41;98021.29;103982;1248;1003531;-68
2023/03/14 10:08:59;;;;;;;7.00;3.50;;;;;;;17.02;40.62;98011.48;104700;1249;112224;-67
2023/03/14 10:11:27;;;;;;;5.90;3.10;;;;;;;16.96;41.31;98015.22;104709;1250;107590;-67
2023/03/14 10:14:06;;;;;;;8.70;3.20;;;;;;;16.95;41.50;98024.45;104608;1250;137795;-67
2023/03/14 10:16:36;;;;;;;6.40;3.40;;;;;;;17.06;41.78;98018.85;104693;1250;107581;-67
2023/03/14 10:19:10;;;;;;;6.00;3.30;;;;;;;17.01;40.95;98020.16;104616;1250;137970;-67
2023/03/14 10:21:41;;;;;;;6.40;3.60;;;;;;;16.82;41.45;98025.41;104748;1249;111924;-67
2023/03/14 10:24:19;;;;;;;7.90;3.40;;;;;;;16.77;41.99;98022.86;104756;1248;108996;-67
2023/03/14 10:26:51;;;;;;;6.10;3.40;;;;;;;16.86;42.04;98010.46;104628;1249;137410;-67
2023/03/14 10:29:19;;;;;;;10.40;3.80;;;;;;;16.69;41.48;98028.25;104755;1248;108117;-68
2023/03/14 10:31:54;;;;;;;6.30;3.50;;;;;;;16.41;41.92;98022.70;104688;1250;137832;-68
2023/03/14 10:34:25;;;;;;;16.90;3.30;;;;;;;16.20;42.49;98021.66;104765;1250;111110;-68
2023/03/14 10:36:57;;;;;;;9.50;3.30;;;;;;;16.00;42.83;98024.50;104637;1250;137798;-68
2023/03/14 10:39:31;;;;;;;8.80;3.60;;;;;;;15.92;43.37;98013.86;104720;1250;96956;-68
2023/03/14 10:42:06;;;;;;;6.10;3.00;;;;;;;15.96;43.63;98013.25;104660;1251;108364;-68
2023/03/14 10:44:35;;;;;;;8.10;3.30;;;;;;;16.09;43.63;98008.97;104611;1249;137882;-68
2023/03/14 10:47:04;;;;;;;9.90;3.40;;;;;;;16.28;43.43;98004.08;104771;1248;112461;-74
2023/03/14 10:49:35;;;;;;;8.60;3.40;;;;;;;16.71;43.97;97996.73;104556;1249;138605;-71
2023/03/14 10:52:16;;;;;;;6.30;3.30;;;;;;;16.98;42.55;98001.63;104748;1248;95860;-70
2023/03/14 10:54:47;;;;;;;7.80;3.40;;;;;;;16.97;42.51;97997.17;104648;1250;138179;-71
2023/03/14 10:57:15;;;;;;;6.90;3.60;;;;;;;16.98;42.44;97999.77;104623;1249;98781;-70
2023/03/14 10:59:45;;;;;;;4.70;3.00;;;;;;;17.04;42.88;97999.49;104698;1248;111255;-70
2023/03/14 11:02:28;;;;;;;7.90;3.20;;;;;;;17.07;42.52;97998.50;104604;1251;138388;-71
2023/03/14 11:05:12;;;;;;;7.80;3.40;;;;;;;17.01;42.67;97994.02;104521;1250;96450;-70
2023/03/14 11:07:41;;;;;;;9.70;3.80;;;;;;;16.97;42.99;97991.77;104425;1251;137407;-71
2023/03/14 11:10:18;;;;;;;6.90;3.30;;;;;;;16.85;43.03;97988.26;104674;1249;96760;-72
2023/03/14 11:12:56;;;;;;;10.30;3.30;;;;;;;16.79;43.22;97999.52;104611;1250;137776;-71
2023/03/14 11:15:31;;;;;;;5.80;3.00;;;;;;;16.57;43.16;97999.96;104690;1250;107027;-71
2023/03/14 11:18:20;;;;;;;5.60;3.50;;;;;;;16.43;43.58;98002.40;104740;1250;96675;-71
2023/03/14 11:20:56;;;;;;;8.00;3.40;;;;;;;16.30;43.83;98007.86;104641;1249;137334;-72
2023/03/14 11:23:28;;;;;;;7.10;3.20;;;;;;;16.16;44.01;98013.95;104703;1249;95963;-70
2023/03/14 11:26:10;;;;;;;12.10;3.50;;;;;;;16.04;44.04;98025.59;104637;1249;138315;-68
2023/03/14 11:28:40;;;;;;;10.10;3.50;;;;;;;15.88;44.16;98033.67;104853;1249;107011;-68
2023/03/14 11:31:17;;;;;;;10.10;3.60;;;;;;;15.67;44.26;98030.27;104881;1249;138502;-68
2023/03/14 11:33:46;;;;;;;;;;;;;;;15.42;44.49;98028.70;105031;1249;106630;-69
2023/03/14 11:36:21;;;;;;;7.30;3.60;;;;;;;15.18;44.30;98025.94;104951;1249;95858;-68
2023/03/14 11:38:51;;;;;;;8.90;4.00;;;;;;;14.95;44.90;98016.35;104631;1249;137629;-68
2023/03/14 11:41:21;;;;;;;7.90;3.90;;;;;;;14.78;45.24;98019.69;104735;1251;107018;-68
2023/03/14 11:43:52;;;;;;;9.00;3.90;;;;;;;14.67;45.74;98018.60;104618;1250;137693;-68
2023/03/14 11:46:26;;;;;;;12.40;4.40;;;;;;;14.62;46.15;98011.34;104462;1251;108553;-68
2023/03/14 11:49:00;;;;;;;8.20;4.00;;;;;;;14.68;46.33;98008.70;104555;1250;138456;-69